Tiempo atmosférico en la estación meteorológica de Antigua, Las Palmas (252 m.)



Fecha
DESCASC
Temp. máxima en grados centígrados (hora)
DESCASC
Temp. mínima en grados centígrados (hora)
DESCASC
Temp. media en grados centígrados
DESCASC
Racha de viento máxima en m/sg (hora)
DESCASC
Velocidad máxima media en intervalos de 10 minutos(hora)
DESCASC
Precipitaciones diarias en mm
DESCASC
Precipitaciones de 00:00 a 06:00 en mm
DESCASC
Precipitaciones de 06:00 a 12:00 en mm
DESCASC
Precipitaciones de 12:00 a 18:00 en mm
DESCASC
Precipitaciones de 18:00 a 24:00 en mm
DESCASC
23-05-2018 21.9 (14:20) 15.1 (23:40) 18.5 11.67 (17:00) 8.06 (15:00) 0 0 0 0 0
22-05-2018 22.6 (16:10) 12.9 (04:30) 17.8 10.83 (18:30) 7.78 (19:00) 0 0 0 0 0
21-05-2018 20.9 (16:50) 14.9 (06:30) 17.9 11.11 (16:50) 7.22 (17:00) 0 0 0 0 0
20-05-2018 21.2 (14:30) 13.7 (00:00) 17.5 12.5 (16:20) 8.33 (15:50) 0 0 0 0 0
19-05-2018 20.4 (15:30) 14.5 (00:00) 17.4 12.5 (04:20) 8.89 (04:50) 0 0 0 0 0
18-05-2018 21.1 (14:10) 14 (00:00) 17.6 11.67 (19:40) 8.33 (19:10) 0 0 0 0 0
17-05-2018 21.2 (15:10) 14.7 (00:00) 18 14.72 (07:00) 11.11 (02:20) 0 0 0 0 0
16-05-2018 20.6 (15:10) 15.2 (00:00) 17.9 14.72 (13:10) 11.11 (13:10) 0 0 0 0 0
15-05-2018 21.3 (12:50) 14.2 (00:00) 17.7 15.83 (15:20) 11.39 (22:40) 0 0 0 0 0
14-05-2018 21.8 (14:30) 12.5 (00:00) 17.1 14.17 (15:10) 10.56 (15:20) 0 0 0 0 0
13-05-2018 22 (13:50) 13.7 (00:00) 17.8 14.72 (16:30) 11.39 (17:30) 0 0 0 0 0
12-05-2018 21.9 (16:30) 12 (00:00) 16.9 12.22 (13:40) 8.06 (19:10) 0 0 0 0 0
11-05-2018 21.2 (14:30) 13.9 (06:30) 17.6 14.17 (18:00) 9.44 (20:20) 0 0 0 0 0
10-05-2018 21.6 (13:50) 14.7 (00:00) 18.2 14.72 (13:30) 11.11 (18:00) 0 0 0 0 0
09-05-2018 20 (15:40) 13.6 (00:00) 16.8 14.17 (11:40) 10.56 (10:50) 0 0 0 0 0
08-05-2018 19.6 (17:00) 14.6 (00:00) 17.1 16.39 (18:40) 11.67 (19:50) 0.6 0.6 0 0 0
07-05-2018 20.4 (16:30) 15.3 (00:00) 17.8 11.11 (14:20) 8.06 (18:20) 0 0 0 0 0
06-05-2018 20.9 (16:20) 14.1 (00:00) 17.5 11.11 (10:40) 8.06 (10:50) 0.6 0 0.6 0 0
05-05-2018 20.8 (14:00) 14.6 (00:00) 17.7 10.83 (14:20) 7.78 (15:30) 0 0 0 0 0
04-05-2018 20.6 (15:10) 14 (00:00) 17.3 13.61 (16:50) 9.72 (16:50) 0 0 0 0 0
03-05-2018 21 (14:50) 14.8 (00:00) 17.9 11.11 (16:50) 8.33 (17:00) 0 0 0 0 0
02-05-2018 20.1 (14:10) 11.7 (00:00) 15.9 12.22 (14:00) 9.17 (13:10) 0 0 0 0 0
01-05-2018 20 (14:40) 12.9 (03:40) 16.4 14.44 (12:40) 10.28 (17:40) 0 0 0 0 0
30-04-2018 19.4 (14:20) 13.5 (00:00) 16.4 12.22 (15:10) 8.89 (18:10) 0 0 0 0 0
29-04-2018 20.1 (14:40) 12.9 (00:00) 16.5 14.44 (14:10) 10 (16:20) 0 0 0 0 0
28-04-2018 19.9 (12:20) 14 (00:00) 16.9 16.94 (17:30) 12.22 (18:10) 0 0 0 0 0
27-04-2018 20.6 (14:50) 14.3 (00:00) 17.5 15.56 (09:10) 12.5 (09:50) 0 0 0 0 0
26-04-2018 19.5 (16:20) 14.8 (00:00) 17.2 17.78 (21:00) 13.06 (21:10) 0 0 0 0 0
25-04-2018 19.5 (15:10) 14.3 (00:00) 16.9 19.17 (14:10) 14.72 (15:40) 0 0 0 0 0
24-04-2018 19.9 (14:40) 14.5 (00:00) 17.2 16.11 (22:50) 11.67 (19:20) 1.6 1.6 0 0 0

Gráficas

Temp. máximas Temp. mínimas Temp. medias Precipitaciones Rachas de viento máximas Velocidades máximas media en intervalos de 10 minutos

Datos horarios

Fecha y hora oficial Temperatura (ºC) Velocidad del viento (km/h) Dirección del viento Racha (km/h) Dirección de racha Precipitación (mm) Presión (hPa) Tendencia (hPa) Humedad (%)
2018-05-23 23:00:00 15.4 16 Noroeste 27 Noroeste 0 -- -- 77
2018-05-23 22:00:00 15.8 18 Noroeste 32 Noroeste 0 -- -- 75
2018-05-23 21:00:00 16.1 21 Noroeste 35 Noroeste 0 -- -- 73
2018-05-23 20:00:00 16.8 25 Noroeste 35 Noroeste 0 -- -- 70
2018-05-23 19:00:00 18.3 24 Noroeste 33 Noroeste 0 -- -- 63
2018-05-23 18:00:00 18.9 24 Noroeste 39 Norte 0 -- -- 59
2018-05-23 17:00:00 20.5 26 Noroeste 42 Noroeste 0 -- -- 49
2018-05-23 16:00:00 21 22 Noroeste 39 Noroeste 0 -- -- 47
2018-05-23 15:00:00 20.7 29 Noroeste 40 Noroeste 0 -- -- 53
2018-05-23 14:00:00 21.7 26 Norte 37 Noroeste 0 -- -- 45
2018-05-23 13:00:00 21.3 22 Noroeste 36 Noroeste 0 -- -- 48
2018-05-23 12:00:00 20.9 20 Noroeste 30 Noroeste 0 -- -- 56
2018-05-23 11:00:00 20.2 15 Norte 25 Noroeste 0 -- -- 62
2018-05-23 10:00:00 18.8 15 Norte 26 Noroeste 0 -- -- 71
2018-05-23 09:00:00 16.8 19 Noroeste 29 Norte 0 -- -- 84
2018-05-23 08:00:00 16 23 Noroeste 31 Norte 0 -- -- 91
2018-05-23 07:00:00 16 18 Norte 23 Norte 0 -- -- 93
2018-05-23 06:00:00 16.1 12 Norte 25 Noroeste 0 -- -- 93
2018-05-23 05:00:00 16.2 16 Noroeste 24 Noroeste 0 -- -- 93
2018-05-23 04:00:00 16.5 15 Noroeste 27 Noroeste 0 -- -- 93
2018-05-23 03:00:00 16.6 18 Noroeste 26 Noroeste 0 -- -- 91
2018-05-23 02:00:00 16.5 6 Noroeste 23 Noroeste 0 -- -- 91
2018-05-23 01:00:00 16.6 17 Noroeste 27 Noroeste 0 -- -- 91
2018-05-23 00:00:00 16.9 17 Norte 33 Noroeste 0 -- -- 89
2018-05-22 23:00:00 17.5 22 Noroeste 33 Noroeste 0 -- -- 87
2018-05-22 22:00:00 17.7 20 Noroeste 32 Noroeste 0 -- -- 86
2018-05-22 21:00:00 17.9 21 Noroeste 32 Noroeste 0 -- -- 84
2018-05-22 20:00:00 18.1 19 Noroeste 35 Oeste 0 -- -- 87
2018-05-22 19:00:00 20 28 Oeste 39 Oeste 0 -- -- 75
2018-05-22 18:00:00 21.8 23 Oeste 35 Oeste 0 -- -- 66
2018-05-22 17:00:00 22.2 24 Noroeste 36 Noroeste 0 -- -- 62
2018-05-22 16:00:00 22.4 21 Noroeste 34 Norte 0 -- -- 56
2018-05-22 15:00:00 22.2 20 Norte 36 Norte 0 -- -- 54
2018-05-22 14:00:00 22.1 23 Noroeste 35 Noroeste 0 -- -- 53
2018-05-22 13:00:00 21 17 Noroeste 31 Noroeste 0 -- -- 53
2018-05-22 12:00:00 20.1 17 Noroeste 27 Noroeste 0 -- -- 55
2018-05-22 11:00:00 19.1 13 Norte 23 Noroeste 0 -- -- 62
2018-05-22 10:00:00 16.9 15 Noroeste 24 Noroeste 0 -- -- 72
2018-05-22 09:00:00 15.9 17 Noroeste 26 Noroeste 0 -- -- 79
2018-05-22 08:00:00 15.3 15 Noroeste 22 Noroeste 0 -- -- 86
2018-05-22 07:00:00 14.5 6 Norte 19 Noroeste 0 -- -- 90
2018-05-22 06:00:00 14.2 13 Noroeste 19 Noroeste 0 -- -- 90
2018-05-22 05:00:00 13.3 0 Calma 4 Sur 0 -- -- 91
2018-05-22 04:00:00 13.1 2 Este 13 Noroeste 0 -- -- 89
2018-05-22 03:00:00 14.3 12 Noroeste 22 Noroeste 0 -- -- 87
2018-05-22 02:00:00 14.7 13 Noroeste 19 Noroeste 0 -- -- 87
2018-05-22 01:00:00 15.1 12 Noroeste 22 Norte 0 -- -- 86
2018-05-22 00:00:00 15.5 13 Norte 20 Norte 0 -- -- 86
2018-05-21 23:00:00 16 14 Noroeste 23 Noroeste 0 -- -- 82
2018-05-21 22:00:00 15.9 14 Norte 26 Norte 0 -- -- 80
2018-05-21 21:00:00 16.4 19 Noroeste 29 Noroeste 0 -- -- 75
2018-05-21 20:00:00 17.3 21 Noroeste 31 Noroeste 0 -- -- 70
2018-05-21 19:00:00 18.3 22 Noroeste 33 Noroeste 0 -- -- 70
2018-05-21 18:00:00 19.5 24 Noroeste 33 Noroeste 0 -- -- 60
2018-05-21 17:00:00 -- 26 Norte 40 Noroeste 0 -- -- --
2018-05-21 16:00:00 19.9 22 Noroeste 34 Noroeste 0 -- -- 56
2018-05-21 15:00:00 19.3 23 Noroeste 33 Noroeste 0 -- -- 53
2018-05-21 14:00:00 18.2 24 Noroeste 33 Noroeste 0 -- -- 62
2018-05-21 13:00:00 18.6 20 Noroeste 35 Noroeste 0 -- -- 65
2018-05-21 12:00:00 19.5 21 Noroeste 34 Noroeste 0 -- -- 58
2018-05-21 11:00:00 17.8 21 Norte 33 Norte 0 -- -- 64
2018-05-21 10:00:00 16.4 16 Norte 26 Norte 0 -- -- 76
2018-05-21 09:00:00 16 20 Norte 27 Norte 0 -- -- 81
2018-05-21 08:00:00 15.5 15 Noroeste 22 Noroeste 0 -- -- 85
2018-05-21 07:00:00 15 10 Noroeste 26 Norte 0 -- -- 84
2018-05-21 06:00:00 15.5 18 Norte 29 Norte 0 -- -- 85
2018-05-21 05:00:00 15.6 21 Noroeste 28 Noroeste 0 -- -- 85
2018-05-21 04:00:00 15.5 14 Noroeste 23 Norte 0 -- -- 82
2018-05-21 03:00:00 15.5 17 Norte 30 Noroeste 0 -- -- 83
2018-05-21 02:00:00 15.7 20 Norte 33 Noroeste 0 -- -- 85
2018-05-21 01:00:00 -- 17 Noroeste 30 Noroeste 0 -- -- --
2018-05-21 00:00:00 15.2 14 Noroeste 24 Noroeste 0 -- -- 83
2018-05-20 23:00:00 15.3 16 Norte 30 Noroeste 0 -- -- 81
2018-05-20 22:00:00 15.5 22 Norte 32 Noroeste 0 -- -- 77
2018-05-20 21:00:00 16 22 Norte 36 Noroeste 0 -- -- 74
2018-05-20 20:00:00 17.2 23 Noroeste 36 Noroeste 0 -- -- 72
2018-05-20 19:00:00 18 27 Noroeste 41 Noroeste 0 -- -- 63
2018-05-20 18:00:00 19.7 25 Noroeste 40 Noroeste 0 -- -- 59
2018-05-20 17:00:00 19.8 27 Noroeste 45 Noroeste 0 -- -- 54
2018-05-20 16:00:00 19.8 29 Norte 44 Norte 0 -- -- 50
2018-05-20 15:00:00 20.8 26 Norte 42 Noroeste 0 -- -- 47
2018-05-20 14:00:00 20.6 27 Norte 36 Norte 0 -- -- 45
2018-05-20 13:00:00 19.8 23 Noroeste 35 Noroeste 0 -- -- 50
2018-05-20 12:00:00 18.5 27 Noroeste 36 Noroeste 0 -- -- 55
2018-05-20 11:00:00 17.6 24 Norte 33 Norte 0 -- -- 63
2018-05-20 10:00:00 16.3 18 Norte 32 Norte 0 -- -- 79
2018-05-20 09:00:00 15.9 25 Norte 35 Norte 0 -- -- 82
2018-05-20 08:00:00 15.7 21 Norte 31 Noroeste 0 -- -- 85
2018-05-20 07:00:00 14.8 12 Noroeste 17 Noroeste 0 -- -- 84
2018-05-20 06:00:00 14.1 9 Noroeste 15 Norte 0 -- -- 86
2018-05-20 05:00:00 15 14 Noroeste 26 Noroeste 0 -- -- 79
2018-05-20 04:00:00 14.6 12 Noroeste 22 Norte 0 -- -- 85
2018-05-20 03:00:00 14.9 9 Norte 16 Norte 0 -- -- 87
2018-05-20 02:00:00 14.6 11 Norte 23 Noroeste 0 -- -- 86
2018-05-20 01:00:00 14.9 17 Norte 30 Norte 0 -- -- 85
2018-05-20 00:00:00 14.7 17 Norte 27 Noroeste 0 -- -- 85
2018-05-19 23:00:00 14.9 20 Norte 36 Norte 0 -- -- 85
2018-05-19 22:00:00 15.4 27 Norte 36 Norte 0 -- -- 82
2018-05-19 21:00:00 15.8 21 Norte 39 Norte 0 -- -- 77
2018-05-19 20:00:00 17 26 Norte 38 Noroeste 0 -- -- 71
2018-05-19 19:00:00 18.4 28 Norte 39 Norte 0 -- -- 63
2018-05-19 18:00:00 19.5 30 Norte 42 Norte 0 -- -- 59
2018-05-19 17:00:00 20.4 30 Norte 44 Noroeste 0 -- -- 53
2018-05-19 16:00:00 19.8 26 Norte 40 Norte 0 -- -- 62
2018-05-19 15:00:00 20.3 30 Norte 38 Norte 0 -- -- 57
2018-05-19 14:00:00 19.6 26 Norte 35 Norte 0 -- -- 61
2018-05-19 13:00:00 18.2 23 Norte 35 Norte 0 -- -- 66
2018-05-19 12:00:00 16.6 24 Norte 35 Norte 0 -- -- 78
2018-05-19 11:00:00 16.3 23 Norte 33 Norte 0 -- -- 81
2018-05-19 10:00:00 16.5 21 Norte 31 Norte 0 -- -- 78
2018-05-19 09:00:00 16.2 21 Norte 35 Norte 0 -- -- 76
2018-05-19 08:00:00 15.9 20 Norte 32 Norte 0 -- -- 83
2018-05-19 07:00:00 15.6 19 Norte 38 Noroeste 0 -- -- 78
2018-05-19 06:00:00 15.7 24 Noroeste 37 Norte 0 -- -- 85
2018-05-19 05:00:00 15.8 30 Norte 45 Norte 0 -- -- 76
2018-05-19 04:00:00 16 24 Norte 40 Norte 0 -- -- 80
2018-05-19 03:00:00 15.8 24 Norte 38 Norte 0 -- -- 78
2018-05-19 02:00:00 15.8 21 Norte 39 Norte 0 -- -- 76
2018-05-19 01:00:00 15.9 28 Norte 39 Norte 0 -- -- 83
2018-05-19 00:00:00 16 27 Norte 37 Noroeste 0 -- -- 77
2018-05-18 23:00:00 16.2 27 Norte 40 Norte 0 -- -- 82
2018-05-18 22:00:00 16.2 26 Norte 39 Norte 0 -- -- 84
2018-05-18 21:00:00 16.4 26 Norte 41 Norte 0 -- -- 84
2018-05-18 20:00:00 16.7 28 Norte 42 Noroeste 0 -- -- 80
2018-05-18 19:00:00 17.6 30 Noroeste 39 Norte 0 -- -- 75
2018-05-18 18:00:00 18.3 28 Norte 39 Norte 0 -- -- 70
2018-05-18 17:00:00 19.6 27 Noroeste 38 Noroeste 0 -- -- 64
2018-05-18 16:00:00 20.2 26 Norte 41 Norte 0 -- -- 59
2018-05-18 15:00:00 20.7 26 Noroeste 38 Norte 0 -- -- 58
2018-05-18 14:00:00 21 21 Noroeste 38 Noroeste 0 -- -- 55
2018-05-18 13:00:00 20.9 21 Norte 36 Noroeste 0 -- -- 55
2018-05-18 12:00:00 20.4 22 Norte 35 Noroeste 0 -- -- 56
2018-05-18 11:00:00 18.9 22 Norte 34 Noroeste 0 -- -- 62
2018-05-18 10:00:00 18.6 23 Norte 36 Norte 0 -- -- 61
2018-05-18 09:00:00 17.2 23 Norte 31 Noroeste 0 -- -- 74
2018-05-18 08:00:00 15.2 20 Noroeste 28 Noroeste 0 -- -- 79
2018-05-18 07:00:00 14 21 Noroeste 31 Noroeste 0 -- -- 85
2018-05-18 06:00:00 14.5 17 Noroeste 29 Noroeste 0 -- -- 84
2018-05-18 05:00:00 14.5 21 Noroeste 28 Noroeste 0 -- -- 80
2018-05-18 04:00:00 14.6 22 Noroeste 37 Noroeste 0 -- -- 78
2018-05-18 03:00:00 14.6 21 Noroeste 33 Noroeste 0 -- -- 80
2018-05-18 02:00:00 14.6 23 Noroeste 32 Noroeste 0 -- -- 80
2018-05-18 01:00:00 14.8 23 Noroeste 42 Noroeste 0 -- -- 81
2018-05-18 00:00:00 15.5 27 Noroeste 42 Noroeste 0 -- -- 85
2018-05-17 23:00:00 15.1 29 Noroeste 42 Noroeste 0 -- -- 83
2018-05-17 22:00:00 15.3 30 Noroeste 43 Noroeste 0 -- -- 82
2018-05-17 21:00:00 15.6 32 Noroeste 45 Noroeste 0 -- -- 80
2018-05-17 20:00:00 16.5 32 Noroeste 44 Noroeste 0 -- -- 75
2018-05-17 19:00:00 18.1 31 Noroeste 41 Noroeste 0 -- -- 69
2018-05-17 18:00:00 18.9 30 Noroeste 40 Noroeste 0 -- -- 64
2018-05-17 17:00:00 19.8 31 Noroeste 42 Noroeste 0 -- -- 62
2018-05-17 16:00:00 20.4 27 Noroeste 40 Norte 0 -- -- 62
2018-05-17 15:00:00 21.1 28 Noroeste 42 Noroeste 0 -- -- 56
2018-05-17 14:00:00 21 26 Noroeste 43 Noroeste 0 -- -- 57
2018-05-17 13:00:00 20.3 29 Noroeste 46 Noroeste 0 -- -- 59
2018-05-17 12:00:00 19.9 27 Norte 44 Noroeste 0 -- -- 60
2018-05-17 11:00:00 18.8 28 Noroeste 45 Noroeste 0 -- -- 63
2018-05-17 10:00:00 -- 30 Noroeste 44 Noroeste 0 -- -- --
2018-05-17 09:00:00 17.1 30 Noroeste 45 Noroeste 0 -- -- 76
2018-05-17 08:00:00 15.6 31 Noroeste 51 Noroeste 0 -- -- 81
2018-05-17 07:00:00 15.1 38 Noroeste 53 Noroeste 0 -- -- 85
2018-05-17 06:00:00 15.3 37 Noroeste 52 Noroeste 0 -- -- 81
2018-05-17 05:00:00 14.9 38 Noroeste 53 Noroeste 0 -- -- 81
2018-05-17 04:00:00 15 38 Noroeste 51 Noroeste 0 -- -- 90
2018-05-17 03:00:00 15 38 Noroeste 51 Noroeste 0 -- -- 88
2018-05-17 02:00:00 15.1 36 Noroeste 49 Noroeste 0 -- -- 87
2018-05-17 01:00:00 15.3 35 Noroeste 48 Noroeste 0 -- -- 85
2018-05-17 00:00:00 15.6 30 Noroeste 44 Noroeste 0 -- -- 84
2018-05-16 23:00:00 15.5 30 Noroeste 45 Noroeste 0 -- -- 84
2018-05-16 22:00:00 15.6 34 Noroeste 47 Noroeste 0 -- -- 82
2018-05-16 21:00:00 16 29 Noroeste 42 Noroeste 0 -- -- 81
2018-05-16 20:00:00 16.4 32 Noroeste 45 Noroeste 0 -- -- 78
2018-05-16 19:00:00 16.7 35 Noroeste 49 Noroeste 0 -- -- 75
2018-05-16 18:00:00 18 33 Noroeste 47 Noroeste 0 -- -- 71
2018-05-16 17:00:00 18.2 36 Noroeste 48 Noroeste 0 -- -- 71
2018-05-16 16:00:00 -- 36 Noroeste 50 Noroeste 0 -- -- --
2018-05-16 15:00:00 19.8 36 Noroeste 46 Noroeste 0 -- -- 60
2018-05-16 14:00:00 20.3 35 Noroeste 53 Noroeste 0 -- -- 61
2018-05-16 13:00:00 20.2 37 Noroeste 52 Noroeste 0 -- -- 63
2018-05-16 12:00:00 18.9 37 Noroeste 51 Noroeste 0 -- -- 70
2018-05-16 11:00:00 18.1 37 Noroeste 51 Noroeste 0 -- -- 73
2018-05-16 10:00:00 17.2 32 Noroeste 43 Noroeste 0 -- -- 78
2018-05-16 09:00:00 16.3 25 Norte 38 Norte 0 -- -- 83
2018-05-16 08:00:00 15.7 24 Norte 34 Norte 0 -- -- 88
2018-05-16 07:00:00 15.4 24 Norte 37 Norte 0 -- -- 89
2018-05-16 06:00:00 15.5 25 Norte 39 Norte 0 -- -- 90
2018-05-16 05:00:00 15.6 24 Noroeste 36 Norte 0 -- -- 90
2018-05-16 04:00:00 15.8 23 Norte 35 Noroeste 0 -- -- 89
2018-05-16 03:00:00 15.8 25 Noroeste 37 Noroeste 0 -- -- 85
2018-05-16 02:00:00 15.9 24 Noroeste 40 Noroeste 0 -- -- 78
2018-05-16 01:00:00 15.9 27 Noroeste 43 Noroeste 0 -- -- 87
2018-05-16 00:00:00 16 29 Noroeste 43 Noroeste 0 -- -- 83
2018-05-15 23:00:00 15.9 30 Norte 54 Noroeste 0 -- -- 76
2018-05-15 22:00:00 15.9 36 Noroeste 54 Noroeste 0 -- -- 79
2018-05-15 21:00:00 16.2 36 Norte 48 Norte 0 -- -- 80
2018-05-15 20:00:00 16.6 33 Norte 55 Noroeste 0 -- -- 80
2018-05-15 19:00:00 17.3 38 Noroeste 53 Noroeste 0 -- -- 72
2018-05-15 18:00:00 18.9 41 Noroeste 55 Noroeste 0 -- -- 66
2018-05-15 17:00:00 19.9 36 Noroeste 50 Noroeste 0 -- -- 66
2018-05-15 16:00:00 20.1 38 Noroeste 57 Noroeste 0 -- -- 65
2018-05-15 15:00:00 20.6 37 Noroeste 51 Noroeste 0 -- -- 64
2018-05-15 14:00:00 20.7 34 Noroeste 47 Noroeste 0 -- -- 65
2018-05-15 13:00:00 21.1 32 Noroeste 45 Noroeste 0 -- -- 62
2018-05-15 12:00:00 20.2 29 Norte 42 Noroeste 0 -- -- 64
2018-05-15 11:00:00 19.6 24 Norte 38 Norte 0 -- -- 67
2018-05-15 10:00:00 18 19 Norte 31 Norte 0 -- -- 72
2018-05-15 09:00:00 16.1 21 Norte 29 Norte 0 -- -- 81
2018-05-15 08:00:00 14.7 15 Norte 24 Norte 0 -- -- 91
2018-05-15 07:00:00 14.3 14 Norte 34 Noroeste 0 -- -- 92
2018-05-15 06:00:00 14.5 28 Noroeste 48 Norte 0 -- -- 91
2018-05-15 05:00:00 14.6 31 Noroeste 45 Noroeste 0 -- -- 90
2018-05-15 04:00:00 14.8 34 Noroeste 48 Noroeste 0 -- -- 90
2018-05-15 03:00:00 14.7 30 Noroeste 44 Noroeste 0 -- -- 89
2018-05-15 02:00:00 14.8 31 Noroeste 42 Noroeste 0 -- -- 89
2018-05-15 01:00:00 14.9 33 Norte 46 Noroeste 0 -- -- 88
2018-05-15 00:00:00 15 31 Norte 43 Norte 0 -- -- 87
2018-05-14 23:00:00 15.1 32 Norte 44 Norte 0 -- -- 86
2018-05-14 22:00:00 15.4 32 Norte 43 Noroeste 0 -- -- 85
2018-05-14 21:00:00 15.8 30 Norte 42 Noroeste 0 -- -- 82
2018-05-14 20:00:00 17.1 30 Norte 46 Norte 0 -- -- 75
2018-05-14 19:00:00 19.1 33 Norte 48 Noroeste 0 -- -- 68
2018-05-14 18:00:00 20.5 34 Norte 51 Noroeste 0 -- -- 63
2018-05-14 17:00:00 21.3 33 Norte 49 Noroeste 0 -- -- 61
2018-05-14 16:00:00 21.7 33 Norte 51 Noroeste 0 -- -- 58
2018-05-14 15:00:00 21.6 33 Noroeste 49 Noroeste 0 -- -- 59
2018-05-14 14:00:00 21.4 34 Noroeste 50 Norte 0 -- -- 58
2018-05-14 13:00:00 -- 36 Noroeste 45 Norte 0 -- -- --
2018-05-14 12:00:00 20.9 24 Norte 36 Norte 0 -- -- 58
2018-05-14 11:00:00 19.5 22 Norte 35 Norte 0 -- -- 62
2018-05-14 10:00:00 17.5 23 Norte 33 Noroeste 0 -- -- 69
2018-05-14 09:00:00 15.6 26 Norte 35 Norte 0 -- -- 77
2018-05-14 08:00:00 13.4 18 Norte 24 Norte 0 -- -- 89
2018-05-14 07:00:00 12.6 18 Norte 32 Noroeste 0 -- -- 89
2018-05-14 06:00:00 13 26 Noroeste 35 Noroeste 0 -- -- 89
2018-05-14 05:00:00 12.9 23 Noroeste 33 Noroeste 0 -- -- 88
2018-05-14 04:00:00 13.1 25 Norte 41 Noroeste 0 -- -- 88
2018-05-14 03:00:00 13.3 29 Norte 39 Noroeste 0 -- -- 87
2018-05-14 02:00:00 13.5 29 Norte 41 Norte 0 -- -- 87
2018-05-14 01:00:00 13.6 21 Norte 30 Norte 0 -- -- 85
2018-05-14 00:00:00 13.7 22 Norte 33 Norte 0 -- -- 83
2018-05-11 19:00:00 -- -- -- -- -- -- -- -- --
2018-05-11 18:00:00 20.1 31 Norte 51 Norte 0 -- -- 62
2018-05-11 17:00:00 20.3 23 Nordeste 42 Nordeste 0 -- -- 61
2018-05-11 16:00:00 20.6 25 Nordeste 40 Nordeste 0 -- -- 60
2018-05-11 15:00:00 21.1 26 Nordeste 39 Este 0 -- -- 57
2018-05-11 14:00:00 20.9 26 Nordeste 43 Nordeste 0 -- -- 56
2018-05-11 13:00:00 20.2 26 Nordeste 43 Nordeste 0 -- -- 60
2018-05-11 12:00:00 19.9 22 Nordeste 41 Nordeste 0 -- -- 59
2018-05-11 11:00:00 18.4 23 Nordeste 39 Nordeste 0 -- -- 61
2018-05-11 10:00:00 17 23 Nordeste 34 Norte 0 -- -- 67
2018-05-11 09:00:00 15.9 18 Nordeste 28 Nordeste 0 -- -- 70
2018-05-11 08:00:00 15.1 16 Norte 23 Nordeste 0 -- -- 73
2018-05-11 07:00:00 14.5 13 Norte 26 Norte 0 -- -- 75
2018-05-11 06:00:00 14.5 19 Norte 31 Norte 0 -- -- 74
2018-05-11 05:00:00 14.8 20 Norte 39 Norte 0 -- -- 75
2018-05-11 04:00:00 15 23 Norte 37 Norte 0 -- -- 73
2018-05-11 03:00:00 15.2 24 Norte 36 Norte 0 -- -- 75
2018-05-11 02:00:00 15.2 24 Norte 35 Norte 0 -- -- 74
2018-05-11 01:00:00 15.2 25 Norte 39 Norte 0 -- -- 75
2018-05-11 00:00:00 14.9 19 Norte 33 Norte 0 -- -- 76
2018-05-10 23:00:00 14.9 22 Norte 33 Norte 0 -- -- 76
2018-05-10 22:00:00 15.1 21 Norte 38 Norte 0 -- -- 74
2018-05-10 21:00:00 15.5 27 Norte 41 Norte 0 -- -- 74
2018-05-10 20:00:00 16.3 29 Norte 42 Norte 0 -- -- 72
2018-05-10 19:00:00 17.6 32 Norte 48 Noroeste 0 -- -- 65
2018-05-10 18:00:00 18.4 40 Noroeste 53 Noroeste 0 -- -- 63
2018-05-10 17:00:00 19.7 34 Noroeste 53 Noroeste 0 -- -- 57
2018-05-10 16:00:00 20.4 35 Noroeste 51 Noroeste 0 -- -- 55
2018-05-10 15:00:00 21.2 34 Noroeste 46 Noroeste 0 -- -- 56
2018-05-10 14:00:00 -- 28 Norte 53 Norte 0 -- -- --
2018-05-10 13:00:00 21.3 27 Norte 41 Norte 0 -- -- 54
2018-05-10 12:00:00 20.5 24 Norte 48 Norte 0 -- -- 57
2018-05-10 11:00:00 19.4 31 Norte 48 Norte 0 -- -- 58
2018-05-10 10:00:00 18.5 35 Norte 51 Norte 0 -- -- 64
2018-05-10 09:00:00 17.3 33 Norte 46 Norte 0 -- -- 68
2018-05-10 08:00:00 15.7 28 Norte 39 Norte 0 -- -- 82
2018-05-10 07:00:00 -- 26 Norte 38 Noroeste 0 -- -- --
2018-05-10 06:00:00 15.5 24 Norte 36 Norte 0 -- -- 78
2018-05-10 05:00:00 15.5 27 Norte 45 Norte 0 -- -- 79
2018-05-10 04:00:00 15.6 23 Norte 30 Norte 0 -- -- 82
2018-05-10 03:00:00 15.5 15 Norte 27 Noroeste 0 -- -- 84
2018-05-10 02:00:00 15.3 18 Norte 39 Norte 0 -- -- 78
2018-05-10 01:00:00 15.4 23 Norte 45 Norte 0 -- -- 82
2018-05-10 00:00:00 15.7 34 Norte 49 Noroeste 0 -- -- 82
2018-05-09 23:00:00 16 33 Norte 48 Norte 0 -- -- 79
2018-05-09 22:00:00 15.9 22 Norte 37 Noroeste 0 -- -- 79
2018-05-09 21:00:00 16.1 25 Norte 42 Norte 0 -- -- 77
2018-05-09 20:00:00 16.5 28 Norte 47 Noroeste 0 -- -- 78
2018-05-09 19:00:00 17.5 30 Norte 46 Norte 0 -- -- 73
2018-05-09 18:00:00 18.1 34 Norte 45 Norte 0 -- -- 74
2018-05-09 17:00:00 18.5 30 Noroeste 43 Noroeste 0 -- -- 74
2018-05-09 16:00:00 19.8 32 Noroeste 44 Norte 0 -- -- 68
2018-05-09 15:00:00 19.9 30 Noroeste 43 Norte 0 -- -- 68
2018-05-09 14:00:00 19.5 29 Norte 46 Norte 0 -- -- 69
2018-05-09 13:00:00 18.7 30 Norte 46 Norte 0 -- -- 74
2018-05-09 12:00:00 -- 35 Norte 51 Norte 0 -- -- --
2018-05-09 11:00:00 18.1 36 Norte 50 Norte 0 -- -- 75
2018-05-09 10:00:00 16.9 37 Norte 49 Norte 0 -- -- 77
2018-05-09 09:00:00 16.2 32 Norte 42 Noroeste 0 -- -- 81
2018-05-09 08:00:00 15.6 26 Norte 39 Noroeste 0 -- -- 86
2018-05-09 07:00:00 15.1 18 Norte 27 Noroeste 0 -- -- 87
2018-05-09 06:00:00 14.6 19 Norte 27 Noroeste 0 -- -- 88
2018-05-09 05:00:00 14 10 Norte 23 Norte 0 -- -- 91
2018-05-09 04:00:00 14.1 17 Norte 24 Norte 0 -- -- 89
2018-05-09 03:00:00 14.5 18 Norte 36 Norte 0 -- -- 84
2018-05-09 02:00:00 15.4 22 Norte 32 Noroeste 0 -- -- 87
2018-05-09 01:00:00 15.4 18 Norte 48 Norte 0 -- -- 84
2018-05-09 00:00:00 15.5 31 Noroeste 42 Noroeste 0 -- -- 86
2018-05-08 23:00:00 15.3 34 Norte 53 Noroeste 0 -- -- 86
2018-05-08 22:00:00 15.4 40 Noroeste 52 Noroeste 0 -- -- 83
2018-05-08 21:00:00 15.5 37 Noroeste 56 Noroeste 0 -- -- 82
2018-05-08 20:00:00 16.2 41 Norte 58 Norte 0 -- -- 76
2018-05-08 19:00:00 16.9 41 Norte 59 Norte 0 -- -- 75
2018-05-08 18:00:00 18.5 37 Norte 48 Norte 0 -- -- 71
2018-05-08 17:00:00 19.6 34 Noroeste 48 Norte 0 -- -- 65
2018-05-08 16:00:00 18.8 28 Norte 41 Norte 0 -- -- 71
2018-05-08 15:00:00 16.8 31 Norte 42 Norte 0 -- -- 81
2018-05-08 14:00:00 16.1 30 Norte 42 Noroeste 0 -- -- 87
2018-05-08 13:00:00 17.9 28 Norte 39 Noroeste 0 -- -- 79
2018-05-08 12:00:00 15.8 24 Noroeste 34 Noroeste 0 -- -- 90
2018-05-08 11:00:00 15.5 24 Norte 35 Norte 0 -- -- 93
2018-05-08 10:00:00 16 24 Norte 37 Noroeste 0 -- -- 88
2018-05-08 09:00:00 15.9 23 Norte 35 Norte 0 -- -- 88
2018-05-08 08:00:00 15.5 23 Norte 36 Noroeste 0 -- -- 88
2018-05-08 07:00:00 15.1 21 Norte 31 Norte 0 -- -- 85
2018-05-08 06:00:00 14.8 21 Norte 33 Norte 0 -- -- 85
2018-05-08 05:00:00 15 19 Norte 29 Norte 0.2 -- -- 91
2018-05-08 04:00:00 15.1 23 Norte 31 Norte 0 -- -- 91
2018-05-08 03:00:00 15 17 Norte 33 Noroeste 0.4 -- -- 92
2018-05-08 02:00:00 15.8 15 Noroeste 27 Noroeste 0 -- -- 87
2018-05-08 01:00:00 15.7 18 Norte 37 Noroeste 0 -- -- 86
2018-05-08 00:00:00 15.7 22 Norte 39 Noroeste 0 -- -- 83
2018-05-07 23:00:00 15.9 24 Norte 36 Noroeste 0 -- -- 83
2018-05-07 22:00:00 16 24 Noroeste 36 Noroeste 0 -- -- 81
2018-05-07 21:00:00 16.2 24 Noroeste 36 Norte 0 -- -- 78
2018-05-07 20:00:00 16.7 23 Noroeste 38 Noroeste 0 -- -- 73
2018-05-07 19:00:00 17.9 26 Noroeste 39 Noroeste 0 -- -- 67
2018-05-07 18:00:00 18.4 26 Noroeste 37 Noroeste 0 -- -- 67
2018-05-07 17:00:00 19.4 27 Noroeste 39 Oeste 0 -- -- 63
2018-05-07 16:00:00 20.1 26 Noroeste 39 Noroeste 0 -- -- 60
2018-05-07 15:00:00 19.8 25 Noroeste 40 Noroeste 0 -- -- 59
2018-05-07 14:00:00 20.1 26 Noroeste 39 Noroeste 0 -- -- 56
2018-05-07 13:00:00 20 21 Noroeste 36 Noroeste 0 -- -- 52
2018-05-07 12:00:00 19.8 22 Noroeste 33 Noroeste 0 -- -- 52
2018-05-07 11:00:00 18.7 19 Noroeste 29 Norte 0 -- -- 61
2018-05-07 10:00:00 17.2 19 Norte 29 Norte 0 -- -- 74
2018-05-07 09:00:00 16.3 18 Noroeste 27 Noroeste 0 -- -- 81
2018-05-07 08:00:00 15.7 12 Noroeste 22 Norte 0 -- -- 83
2018-05-07 07:00:00 15.5 11 Noroeste 19 Noroeste 0 -- -- 85
2018-05-07 06:00:00 15.5 10 Noroeste 21 Noroeste 0 -- -- 87
2018-05-07 05:00:00 15.5 12 Noroeste 19 Norte 0 -- -- 86
2018-05-07 04:00:00 15.5 10 Noroeste 16 Noroeste 0 -- -- 85
2018-05-07 03:00:00 15.7 8 Norte 21 Noroeste 0 -- -- 85
2018-05-07 02:00:00 15.8 16 Noroeste 22 Noroeste 0 -- -- 81
2018-05-07 01:00:00 15.8 12 Noroeste 19 Noroeste 0 -- -- 81
2018-05-07 00:00:00 15.8 12 Noroeste 19 Noroeste 0 -- -- 80
2018-05-06 23:00:00 16.1 13 Noroeste 19 Noroeste 0 -- -- 81
2018-05-06 22:00:00 16.2 14 Noroeste 20 Noroeste 0 -- -- 78
2018-05-06 21:00:00 16.5 13 Noroeste 22 Oeste 0 -- -- 74
2018-05-06 20:00:00 17 17 Oeste 24 Oeste 0 -- -- 68
2018-05-06 19:00:00 18.6 15 Noroeste 30 Noroeste 0 -- -- 62
2018-05-06 18:00:00 19.1 19 Noroeste 28 Noroeste 0 -- -- 60
2018-05-06 17:00:00 20.4 16 Noroeste 30 Noroeste 0 -- -- 51
2018-05-06 16:00:00 19.8 16 Oeste 30 Noroeste 0 -- -- 53
2018-05-06 15:00:00 20.8 20 Noroeste 33 Noroeste 0 -- -- 45
2018-05-06 14:00:00 20 21 Noroeste 33 Noroeste 0 -- -- 49
2018-05-06 13:00:00 20.2 23 Noroeste 37 Noroeste 0 -- -- 48
2018-05-06 12:00:00 19.5 24 Noroeste 33 Noroeste 0 -- -- 48
2018-05-06 11:00:00 17.9 25 Noroeste 40 Noroeste 0 -- -- 71
2018-05-06 10:00:00 16.2 14 Noroeste 29 Noroeste 0 -- -- 80
2018-05-06 09:00:00 15 19 Noroeste 36 Noroeste 0.6 -- -- 86
2018-05-06 08:00:00 15.3 15 Noroeste 21 Noroeste 0 -- -- 83
2018-05-06 07:00:00 15.2 17 Noroeste 22 Noroeste 0 -- -- 82
2018-05-06 06:00:00 15.2 16 Noroeste 30 Noroeste 0 -- -- 82
2018-05-06 05:00:00 15.3 19 Noroeste 27 Noroeste 0 -- -- 82
2018-05-06 04:00:00 15.3 15 Noroeste 25 Noroeste 0 -- -- 82
2018-05-06 03:00:00 15.4 15 Noroeste 25 Norte 0 -- -- 82
2018-05-06 02:00:00 15.3 10 Noroeste 17 Noroeste 0 -- -- 81
2018-05-06 01:00:00 15.5 13 Noroeste 17 Noroeste 0 -- -- 80
2018-05-06 00:00:00 15.3 12 Noroeste 15 Noroeste 0 -- -- 80
2018-05-05 23:00:00 14.7 9 Noroeste 22 Norte 0 -- -- 78
2018-05-05 22:00:00 15.1 15 Norte 27 Norte 0 -- -- 75
2018-05-05 21:00:00 15.8 17 Norte 27 Noroeste 0 -- -- 74
2018-05-05 20:00:00 16.3 20 Noroeste 31 Noroeste 0 -- -- 67
2018-05-05 19:00:00 17 23 Noroeste 38 Noroeste 0 -- -- 67
2018-05-05 18:00:00 17.8 28 Noroeste 39 Noroeste 0 -- -- 65
2018-05-05 17:00:00 18.9 25 Noroeste 37 Noroeste 0 -- -- 59
2018-05-05 16:00:00 19.4 25 Noroeste 37 Noroeste 0 -- -- 54
2018-05-05 15:00:00 20.3 24 Noroeste 39 Noroeste 0 -- -- 50
2018-05-05 14:00:00 20.8 24 Noroeste 37 Noroeste 0 -- -- 48
2018-05-05 13:00:00 20.3 21 Norte 35 Noroeste 0 -- -- 50
2018-05-05 12:00:00 18.9 22 Norte 35 Norte 0 -- -- 56
2018-05-05 11:00:00 17.7 21 Noroeste 35 Noroeste 0 -- -- 57
2018-05-05 10:00:00 16.7 20 Norte 30 Norte 0 -- -- 63
2018-05-05 09:00:00 15.5 17 Norte 27 Norte 0 -- -- 72
2018-05-05 08:00:00 15.3 13 Norte 22 Norte 0 -- -- 75
2018-05-05 07:00:00 15 9 Noroeste 22 Norte 0 -- -- 65
2018-05-05 06:00:00 15.1 10 Norte 23 Noroeste 0 -- -- 69
2018-05-05 05:00:00 15.2 15 Norte 27 Norte 0 -- -- 67
2018-05-05 04:00:00 15.2 21 Norte 30 Norte 0 -- -- 74
2018-05-05 03:00:00 15.3 18 Norte 30 Norte 0 -- -- 74
2018-05-05 02:00:00 15.2 22 Norte 37 Noroeste 0 -- -- 65
2018-05-05 01:00:00 15.2 19 Norte 36 Noroeste 0 -- -- 77
2018-05-05 00:00:00 15.5 22 Norte 33 Norte 0 -- -- 79
2018-05-04 23:00:00 15.7 22 Norte 33 Norte 0 -- -- 75
2018-05-04 22:00:00 15.4 22 Norte 35 Noroeste 0 -- -- 82
2018-05-04 21:00:00 15.8 22 Norte 44 Norte 0 -- -- 80
2018-05-04 20:00:00 16.5 29 Norte 43 Noroeste 0 -- -- 68
2018-05-04 19:00:00 18 30 Norte 44 Norte 0 -- -- 64
2018-05-04 18:00:00 18.8 27 Noroeste 48 Noroeste 0 -- -- 59
2018-05-04 17:00:00 20.1 33 Norte 49 Noroeste 0 -- -- 54
2018-05-04 16:00:00 20.4 30 Noroeste 42 Noroeste 0 -- -- 54
2018-05-04 15:00:00 20.4 32 Noroeste 47 Norte 0 -- -- 55
2018-05-04 14:00:00 20.5 27 Norte 42 Noroeste 0 -- -- 53
2018-05-04 13:00:00 18.1 28 Norte 41 Norte 0 -- -- 68
2018-05-04 12:00:00 18.9 27 Norte 42 Norte 0 -- -- 61
2018-05-04 11:00:00 17.9 24 Norte 39 Norte 0 -- -- 62
2018-05-04 10:00:00 17.4 29 Norte 41 Norte 0 -- -- 63
2018-05-04 09:00:00 16.1 26 Norte 35 Norte 0 -- -- 72
2018-05-04 08:00:00 15.2 18 Norte 27 Noroeste 0 -- -- 77
2018-05-04 07:00:00 14.5 14 Noroeste 28 Norte 0 -- -- 74
2018-05-04 06:00:00 14.4 18 Norte 31 Norte 0 -- -- 72
2018-05-04 05:00:00 14.6 14 Norte 31 Noroeste 0 -- -- 75
2018-05-04 04:00:00 14.6 12 Noroeste 18 Noroeste 0 -- -- 84
2018-05-04 03:00:00 14 14 Noroeste 22 Noroeste 0 -- -- 88
2018-05-04 02:00:00 14.7 13 Norte 22 Noroeste 0 -- -- 88
2018-05-04 01:00:00 14.3 13 Noroeste 24 Norte 0 -- -- 87
2018-05-04 00:00:00 14.9 19 Norte 29 Noroeste 0 -- -- 87
2018-05-03 23:00:00 15.2 19 Norte 35 Noroeste 0 -- -- 83
2018-05-03 22:00:00 15.6 24 Norte 36 Norte 0 -- -- 83
2018-05-03 21:00:00 15.9 22 Norte 37 Norte 0 -- -- 78
2018-05-03 20:00:00 16.6 26 Norte 39 Norte 0 -- -- 74
2018-05-03 19:00:00 18.6 26 Noroeste 37 Norte 0 -- -- 66
2018-05-03 18:00:00 19.2 23 Noroeste 37 Norte 0 -- -- 65
2018-05-03 17:00:00 19.5 30 Norte 40 Norte 0 -- -- 64
2018-05-03 16:00:00 20.1 25 Noroeste 40 Noroeste 0 -- -- 60
2018-05-03 15:00:00 20.7 26 Noroeste 39 Noroeste 0 -- -- 57
2018-05-03 14:00:00 20.4 23 Noroeste 35 Norte 0 -- -- 56
2018-05-03 13:00:00 20.2 22 Noroeste 35 Noroeste 0 -- -- 54
2018-05-03 12:00:00 19.7 24 Norte 35 Norte 0 -- -- 57
2018-05-03 11:00:00 19 22 Norte 32 Norte 0 -- -- 58
2018-05-03 10:00:00 18.1 16 Noroeste 27 Norte 0 -- -- 69
2018-05-03 09:00:00 16.7 13 Norte 19 Noroeste 0 -- -- 79
2018-05-03 08:00:00 15.3 13 Noroeste 19 Noroeste 0 -- -- 86
2018-05-03 07:00:00 15.1 12 Norte 23 Norte 0 -- -- 87
2018-05-03 06:00:00 15.2 13 Norte 18 Norte 0 -- -- 88
2018-05-03 05:00:00 15.1 12 Noroeste 17 Noroeste 0 -- -- 88
2018-05-03 04:00:00 15.2 12 Noroeste 20 Noroeste 0 -- -- 87
2018-05-03 03:00:00 14.9 12 Noroeste 20 Noroeste 0 -- -- 86
2018-05-03 02:00:00 15 8 Norte 15 Noroeste 0 -- -- 84
2018-05-03 01:00:00 15.1 9 Norte 17 Norte 0 -- -- 83
2018-05-03 00:00:00 15.1 10 Norte 14 Noroeste 0 -- -- 80
2018-05-02 23:00:00 15.4 11 Norte 17 Norte 0 -- -- 79
2018-05-02 22:00:00 15.2 11 Noroeste 21 Noroeste 0 -- -- 80
2018-05-02 21:00:00 15.8 17 Noroeste 24 Noroeste 0 -- -- 75
2018-05-02 20:00:00 16.3 15 Noroeste 32 Noroeste 0 -- -- 73
2018-05-02 19:00:00 17.7 23 Noroeste 35 Noroeste 0 -- -- 66
2018-05-02 18:00:00 19.1 25 Noroeste 38 Noroeste 0 -- -- 60
2018-05-02 17:00:00 19.4 26 Norte 42 Noroeste 0 -- -- 57
2018-05-02 16:00:00 19.7 27 Norte 40 Norte 0 -- -- 56
2018-05-02 15:00:00 19.8 24 Norte 41 Noroeste 0 -- -- 54
2018-05-02 14:00:00 19.9 28 Noroeste 44 Noroeste 0 -- -- 53
2018-05-02 13:00:00 19 31 Norte 41 Norte 0 -- -- 56
2018-05-02 12:00:00 18.4 28 Norte 43 Norte 0 -- -- 56
2018-05-02 11:00:00 17.9 27 Norte 39 Norte 0 -- -- 60
2018-05-02 10:00:00 16.6 25 Norte 35 Norte 0 -- -- 67
2018-05-02 09:00:00 14.5 19 Norte 29 Norte 0 -- -- 74
2018-05-02 08:00:00 -- 9 Norte 14 Norte 0 -- -- --
2018-05-02 07:00:00 12.3 5 Norte 21 Noroeste 0 -- -- 82
2018-05-02 06:00:00 -- 13 Norte 23 Norte 0 -- -- --
2018-05-02 05:00:00 11.9 13 Norte 24 Noroeste 0 -- -- 80
2018-05-02 04:00:00 11.8 6 Norte 16 Norte 0 -- -- 81
2018-05-02 03:00:00 12.1 9 Norte 13 Norte 0 -- -- 82
2018-05-02 02:00:00 12.1 4 Norte 12 Noroeste 0 -- -- 82
2018-05-02 01:00:00 12.8 7 Noroeste 19 Norte 0 -- -- 81
2018-05-02 00:00:00 13.5 13 Norte 25 Norte 0 -- -- 80
2018-05-01 23:00:00 13.9 18 Norte 31 Norte 0 -- -- 80
2018-05-01 22:00:00 14.4 19 Norte 30 Norte 0 -- -- 77
2018-05-01 21:00:00 15.2 23 Norte 37 Noroeste 0 -- -- 73
2018-05-01 20:00:00 15.9 31 Noroeste 45 Noroeste 0 -- -- 71
2018-05-01 19:00:00 17.4 34 Noroeste 45 Noroeste 0 -- -- 64
2018-05-01 18:00:00 18.3 35 Noroeste 50 Norte 0 -- -- 56
2018-05-01 17:00:00 18.6 35 Noroeste 48 Noroeste 0 -- -- 59
2018-05-01 16:00:00 19.5 32 Noroeste 48 Noroeste 0 -- -- 55
2018-05-01 15:00:00 20 35 Noroeste 49 Noroeste 0 -- -- 54
2018-05-01 14:00:00 19 33 Norte 51 Norte 0 -- -- 56
2018-05-01 13:00:00 19.4 33 Norte 52 Noroeste 0 -- -- 54
2018-05-01 12:00:00 18.2 31 Norte 46 Norte 0 -- -- 59
2018-05-01 11:00:00 18 31 Norte 45 Norte 0 -- -- 61
2018-05-01 10:00:00 16.2 27 Norte 40 Noroeste 0 -- -- 74
2018-05-01 09:00:00 16.1 25 Norte 35 Norte 0 -- -- 70
2018-05-01 08:00:00 13.8 18 Norte 24 Norte 0 -- -- 83
2018-05-01 07:00:00 13.4 17 Norte 29 Norte 0 -- -- 81
2018-05-01 06:00:00 13.6 22 Norte 33 Norte 0 -- -- 79
2018-05-01 05:00:00 14 22 Norte 33 Norte 0 -- -- 77
2018-05-01 04:00:00 13.2 15 Norte 22 Norte 0 -- -- 79
2018-05-01 03:00:00 13.6 15 Norte 24 Norte 0 -- -- 77
2018-05-01 02:00:00 13.7 13 Norte 21 Norte 0 -- -- 76
2018-05-01 01:00:00 13.7 13 Norte 18 Norte 0 -- -- 75
2018-05-01 00:00:00 14 14 Norte 25 Norte 0 -- -- 72
2018-04-30 23:00:00 14.3 18 Norte 32 Norte 0 -- -- 73
2018-04-30 22:00:00 14.5 24 Norte 36 Norte 0 -- -- 71
2018-04-30 21:00:00 14.7 24 Norte 40 Noroeste 0 -- -- 67
2018-04-30 20:00:00 15.5 29 Norte 41 Noroeste 0 -- -- 61
2018-04-30 19:00:00 16.7 32 Noroeste 44 Norte 0 -- -- 59
2018-04-30 18:00:00 17.7 29 Noroeste 41 Noroeste 0 -- -- 57
2018-04-30 17:00:00 18.4 29 Noroeste 42 Noroeste 0 -- -- 53
2018-04-30 16:00:00 18.5 30 Noroeste 44 Noroeste 0 -- -- 54
2018-04-30 15:00:00 19.3 27 Norte 42 Norte 0 -- -- 50
2018-04-30 14:00:00 19.3 28 Noroeste 42 Norte 0 -- -- 45
2018-04-30 13:00:00 18.1 28 Norte 41 Norte 0 -- -- 49
2018-04-30 12:00:00 17.3 24 Norte 39 Norte 0 -- -- 61
2018-04-30 11:00:00 16.6 23 Noroeste 39 Noroeste 0 -- -- 62
2018-04-30 10:00:00 16.4 21 Norte 36 Norte 0 -- -- 60
2018-04-30 09:00:00 14.9 19 Norte 30 Norte 0 -- -- 64
2018-04-30 08:00:00 14.2 18 Norte 28 Norte 0 -- -- 64
2018-04-30 07:00:00 13.8 14 Norte 29 Norte 0 -- -- 65
2018-04-30 06:00:00 13.9 19 Norte 30 Norte 0 -- -- 64
2018-04-30 05:00:00 13.8 23 Norte 33 Norte 0 -- -- 65
2018-04-30 04:00:00 13.8 18 Norte 39 Norte 0 -- -- 65
2018-04-30 03:00:00 13.8 25 Norte 38 Norte 0 -- -- 65
2018-04-30 02:00:00 13.5 22 Norte 40 Norte 0 -- -- 67
2018-04-30 01:00:00 13.8 24 Norte 36 Norte 0 -- -- 66
2018-04-30 00:00:00 14.1 24 Norte 40 Norte 0 -- -- 65
2018-04-29 23:00:00 13.9 27 Norte 39 Norte 0 -- -- 65
2018-04-29 22:00:00 14.3 23 Norte 41 Norte 0 -- -- 65
2018-04-29 21:00:00 14.9 29 Norte 42 Norte 0 -- -- 67
2018-04-29 20:00:00 15.6 30 Norte 45 Norte 0 -- -- 63
2018-04-29 19:00:00 17.3 31 Norte 46 Norte 0 -- -- 54
2018-04-29 18:00:00 18.1 33 Noroeste 50 Noroeste 0 -- -- 53
2018-04-29 17:00:00 18.6 34 Noroeste 52 Noroeste 0 -- -- 54
2018-04-29 16:00:00 19.4 34 Norte 49 Noroeste 0 -- -- 51
2018-04-29 15:00:00 19.7 32 Norte 52 Norte 0 -- -- 46
2018-04-29 14:00:00 20 30 Norte 47 Norte 0 -- -- 48
2018-04-29 13:00:00 19.6 24 Norte 42 Norte 0 -- -- 49
2018-04-29 12:00:00 18.4 23 Norte 38 Norte 0 -- -- 53
2018-04-29 11:00:00 17 18 Nordeste 32 Norte 0 -- -- 56
2018-04-29 10:00:00 15.6 21 Nordeste 34 Norte 0 -- -- 57
2018-04-29 09:00:00 15.1 22 Nordeste 31 Nordeste 0 -- -- 58
2018-04-29 08:00:00 13.8 21 Norte 32 Norte 0 -- -- 69
2018-04-29 07:00:00 -- 17 Norte 26 Norte 0 -- -- --
2018-04-29 06:00:00 13.7 15 Norte 32 Nordeste 0 -- -- 69
2018-04-29 05:00:00 13.8 17 Norte 27 Norte 0 -- -- 70
2018-04-29 04:00:00 13.1 13 Norte 32 Norte 0 -- -- 73
2018-04-29 03:00:00 13.7 24 Norte 36 Norte 0 -- -- 75
2018-04-29 02:00:00 14.3 21 Norte 39 Norte 0 -- -- 76
2018-04-29 01:00:00 14.8 25 Norte 40 Norte 0 -- -- 77
2018-04-29 00:00:00 15.5 26 Norte 44 Norte 0 -- -- 81
2018-04-28 23:00:00 15.5 31 Norte 46 Norte 0 -- -- 85
2018-04-28 22:00:00 15.6 29 Norte 48 Norte 0 -- -- 87
2018-04-28 21:00:00 16.1 31 Norte 49 Norte 0 -- -- 79
2018-04-28 20:00:00 16.4 35 Norte 55 Noroeste 0 -- -- 75
2018-04-28 19:00:00 17.7 38 Norte 57 Noroeste 0 -- -- 69
2018-04-28 18:00:00 18.5 41 Noroeste 61 Noroeste 0 -- -- 64
2018-04-28 17:00:00 18.7 44 Norte 57 Norte 0 -- -- 63
2018-04-28 16:00:00 19.5 37 Noroeste 54 Noroeste 0 -- -- 60
2018-04-28 15:00:00 19.5 32 Norte 49 Noroeste 0 -- -- 61
2018-04-28 14:00:00 19.8 30 Norte 50 Noroeste 0 -- -- 62
2018-04-28 13:00:00 19.9 33 Norte 49 Noroeste 0 -- -- 61
2018-04-28 12:00:00 19.6 30 Norte 44 Norte 0 -- -- 63
2018-04-28 11:00:00 18.5 27 Norte 44 Norte 0 -- -- 66
2018-04-28 10:00:00 17.3 29 Norte 48 Norte 0 -- -- 71
2018-04-28 09:00:00 16.2 30 Norte 46 Norte 0 -- -- 78
2018-04-28 08:00:00 -- 31 Noroeste 43 Noroeste 0 -- -- --
2018-04-28 07:00:00 14.1 26 Norte 36 Norte 0 -- -- 89
2018-04-28 06:00:00 14 25 Noroeste 39 Noroeste 0 -- -- 90
2018-04-28 05:00:00 14.2 31 Noroeste 42 Norte 0 -- -- 89
2018-04-28 04:00:00 14.3 28 Noroeste 39 Noroeste 0 -- -- 89
2018-04-28 03:00:00 14.4 21 Noroeste 34 Noroeste 0 -- -- 88
2018-04-28 02:00:00 14.5 24 Noroeste 40 Noroeste 0 -- -- 88
2018-04-28 01:00:00 14.7 26 Noroeste 43 Noroeste 0 -- -- 85
2018-04-28 00:00:00 15.2 27 Noroeste 40 Norte 0 -- -- 85
2018-04-27 23:00:00 15.1 28 Norte 51 Noroeste 0 -- -- 83
2018-04-27 22:00:00 15.3 31 Norte 53 Norte 0 -- -- 83
2018-04-27 21:00:00 15.7 36 Norte 56 Noroeste 0 -- -- 84
2018-04-27 20:00:00 16.3 33 Noroeste 49 Noroeste 0 -- -- 80
2018-04-27 19:00:00 17.4 31 Noroeste 49 Noroeste 0 -- -- 75
2018-04-27 18:00:00 18 35 Noroeste 46 Noroeste 0 -- -- 72
2018-04-27 17:00:00 19.1 34 Norte 45 Norte 0 -- -- 67
2018-04-27 16:00:00 19.6 29 Norte 43 Norte 0 -- -- 65
2018-04-27 15:00:00 20.2 28 Norte 43 Noroeste 0 -- -- 61
2018-04-27 14:00:00 20.5 29 Norte 42 Norte 0 -- -- 61
2018-04-27 13:00:00 19.7 30 Noroeste 42 Noroeste 0 -- -- 65
2018-04-27 12:00:00 18.9 28 Norte 44 Norte 0 -- -- 67
2018-04-27 11:00:00 17.7 31 Noroeste 53 Noroeste 0 -- -- 73
2018-04-27 10:00:00 16.5 42 Noroeste 56 Norte 0 -- -- 77
2018-04-27 09:00:00 15.6 41 Norte 56 Norte 0 -- -- 80
2018-04-27 08:00:00 14.5 33 Noroeste 52 Noroeste 0 -- -- 84
2018-04-27 07:00:00 14.5 32 Noroeste 47 Norte 0 -- -- 85
2018-04-27 06:00:00 14.4 37 Noroeste 53 Noroeste 0 -- -- 84
2018-04-27 05:00:00 14.6 39 Noroeste 56 Noroeste 0 -- -- 86
2018-04-27 04:00:00 14.7 37 Norte 55 Noroeste 0 -- -- 87
2018-04-27 03:00:00 14.8 35 Noroeste 49 Noroeste 0 -- -- 90
2018-04-27 02:00:00 15.1 29 Noroeste 44 Norte 0 -- -- 90
2018-04-27 01:00:00 15.1 33 Norte 45 Norte 0 -- -- 89
2018-04-27 00:00:00 15.2 32 Noroeste 51 Norte 0 -- -- 88
2018-04-26 23:00:00 -- 33 Norte 59 Noroeste 0 -- -- --
2018-04-26 22:00:00 15.4 43 Noroeste 62 Noroeste 0 -- -- 87
2018-04-26 21:00:00 15.6 45 Noroeste 64 Norte 0 -- -- 86
2018-04-26 20:00:00 15.9 42 Noroeste 62 Norte 0 -- -- 85
2018-04-26 19:00:00 16.5 31 Noroeste 53 Noroeste 0 -- -- 84
2018-04-26 18:00:00 17.3 39 Noroeste 54 Noroeste 0 -- -- 80
2018-04-26 17:00:00 18.5 39 Noroeste 61 Noroeste 0 -- -- 73
2018-04-26 16:00:00 19.4 38 Norte 55 Noroeste 0 -- -- 72
2018-04-26 15:00:00 19 34 Noroeste 50 Noroeste 0 -- -- 73
2018-04-26 14:00:00 19 32 Norte 49 Norte 0 -- -- 74
2018-04-26 13:00:00 17.8 36 Norte 53 Noroeste 0 -- -- 75
2018-04-26 12:00:00 16.9 37 Norte 51 Norte 0 -- -- 80
2018-04-26 11:00:00 16.5 40 Norte 51 Noroeste 0 -- -- 82
2018-04-26 10:00:00 16.7 32 Norte 48 Norte 0 -- -- 76
2018-04-26 09:00:00 16.1 31 Noroeste 51 Norte 0 -- -- 76
2018-04-26 08:00:00 15.2 31 Noroeste 45 Norte 0 -- -- 81
2018-04-26 07:00:00 15.2 31 Noroeste 46 Noroeste 0 -- -- 84
2018-04-26 06:00:00 15.2 31 Norte 49 Noroeste 0 -- -- 85
2018-04-26 05:00:00 14.9 31 Noroeste 50 Noroeste 0 -- -- 83
2018-04-26 04:00:00 15.2 40 Noroeste 54 Noroeste 0 -- -- 84
2018-04-26 03:00:00 14.8 30 Norte 43 Norte 0 -- -- 81
2018-04-26 02:00:00 15.2 32 Norte 49 Noroeste 0 -- -- 83
2018-04-26 01:00:00 15.3 31 Norte 42 Norte 0 -- -- 79
2018-04-26 00:00:00 15.4 31 Norte 42 Norte 0 -- -- 79
2018-04-25 23:00:00 15.5 31 Norte 46 Norte 0 -- -- 80
2018-04-25 22:00:00 15.7 29 Norte 45 Norte 0 -- -- 83
2018-04-25 21:00:00 15.7 33 Norte 50 Norte 0 -- -- 81
2018-04-25 20:00:00 16 35 Norte 49 Norte 0 -- -- 85
2018-04-25 19:00:00 16.7 27 Norte 50 Noroeste 0 -- -- 84
2018-04-25 18:00:00 17.4 31 Norte 55 Noroeste 0 -- -- 81
2018-04-25 17:00:00 17.5 45 Norte 66 Noroeste 0 -- -- 79
2018-04-25 16:00:00 19 49 Norte 68 Norte 0 -- -- 70
2018-04-25 15:00:00 19.4 49 Noroeste 69 Noroeste 0 -- -- 65
2018-04-25 14:00:00 19.4 48 Noroeste 66 Noroeste 0 -- -- 63
2018-04-25 13:00:00 18.9 48 Noroeste 68 Noroeste 0 -- -- 67
2018-04-25 12:00:00 18.5 44 Noroeste 62 Noroeste 0 -- -- 70
2018-04-25 11:00:00 17.7 43 Norte 57 Norte 0 -- -- 70
2018-04-25 10:00:00 16.7 36 Norte 53 Norte 0 -- -- 80
2018-04-25 09:00:00 15.6 32 Noroeste 49 Noroeste 0 -- -- 86
2018-04-25 08:00:00 14.9 29 Noroeste 42 Noroeste 0 -- -- 91
2018-04-25 07:00:00 14.5 26 Noroeste 38 Noroeste 0 -- -- 94
2018-04-25 06:00:00 14.5 19 Noroeste 34 Noroeste 0 -- -- 95
2018-04-25 05:00:00 14.3 19 Noroeste 36 Noroeste 0 -- -- 95
2018-04-25 04:00:00 14.6 23 Noroeste 42 Noroeste 0 -- -- 93
2018-04-25 03:00:00 14.8 31 Noroeste 42 Noroeste 0 -- -- 91
2018-04-25 02:00:00 15.1 34 Noroeste 53 Noroeste 0 -- -- 88
2018-04-25 01:00:00 14.9 39 Noroeste 55 Noroeste 0 -- -- 91
2018-04-25 00:00:00 15.2 39 Noroeste 57 Noroeste 0 -- -- 90
2018-04-24 23:00:00 15.3 42 Noroeste 58 Noroeste 0 -- -- 89
2018-04-24 22:00:00 15.7 34 Noroeste 50 Noroeste 0 -- -- 88
2018-04-24 21:00:00 15.8 27 Norte 58 Noroeste 0 -- -- 81
2018-04-24 20:00:00 16.1 39 Noroeste 56 Norte 0 -- -- 79
2018-04-24 19:00:00 17 40 Noroeste 53 Noroeste 0 -- -- 78
2018-04-24 18:00:00 18.4 40 Noroeste 52 Noroeste 0 -- -- 70
2018-04-24 17:00:00 18.6 34 Norte 48 Noroeste 0 -- -- 70
2018-04-24 16:00:00 19.1 35 Noroeste 51 Norte 0 -- -- 68
2018-04-24 15:00:00 19.5 35 Norte 49 Noroeste 0 -- -- 72
2018-04-24 14:00:00 18.9 33 Noroeste 49 Noroeste 0 -- -- 73
2018-04-24 13:00:00 18.2 32 Norte 49 Norte 0 -- -- 75
2018-04-24 12:00:00 17.4 33 Norte 46 Noroeste 0 -- -- 83
2018-04-24 11:00:00 18 32 Noroeste 44 Noroeste 0 -- -- 73
2018-04-24 10:00:00 17.1 28 Norte 41 Norte 0 -- -- 82
2018-04-24 09:00:00 15.9 29 Noroeste 40 Noroeste 0 -- -- 90
2018-04-24 08:00:00 15.2 25 Noroeste 41 Noroeste 0 -- -- 92
2018-04-24 07:00:00 -- 26 Noroeste 45 Noroeste 0 -- -- --
2018-04-24 06:00:00 14.9 27 Noroeste 45 Noroeste 0 -- -- 93
2018-04-24 05:00:00 14.8 26 Noroeste 45 Noroeste 0 -- -- 92
2018-04-24 04:00:00 14.9 30 Noroeste 49 Noroeste 0 -- -- 93
2018-04-24 03:00:00 14.6 30 Noroeste 48 Noroeste 0.2 -- -- 94
2018-04-24 02:00:00 14.8 27 Noroeste 46 Noroeste 0 -- -- 90
2018-04-24 01:00:00 14.7 33 Noroeste 55 Noroeste 1.4 -- -- 92
2018-04-24 00:00:00 15.3 30 Noroeste 50 Noroeste 0 -- -- 88